Station: ELLX - 18/06/2019 23:50Z (il y a 13 minutes)
ELLX 182350Z AUTO 14003KT 9999 NCD 21/15 Q1012 NOSIG
Vent du 140º - 3 kt
Visibilité > 10 km
Pas de nuages détectés
Température: +21ºC - Point de rosée: +15ºC - QNH: 1012 hPa
Pas de changement significatif prévu dans les 2 heures qui suivent l'observation